createdAt,value
2023-02-15T00:01:24.117Z,44.75
2023-02-15T00:03:51.668Z,54.95
2023-02-15T00:06:18.352Z,53.30
2023-02-15T00:08:45.058Z,45.50
2023-02-15T00:11:14.944Z,48.10
2023-02-15T00:13:42.681Z,51.53
2023-02-15T00:16:12.467Z,44.38
2023-02-15T00:18:40.418Z,54.05
2023-02-15T00:21:09.620Z,52.08
2023-02-15T00:23:37.050Z,57.03
2023-02-15T00:28:41.875Z,54.63
2023-02-15T00:31:11.632Z,50.67
2023-02-15T00:33:40.331Z,47.80
2023-02-15T00:36:10.209Z,49.80
2023-02-15T00:38:37.569Z,55.22
2023-02-15T00:41:06.711Z,55.00
2023-02-15T00:43:34.655Z,51.47
2023-02-15T00:46:02.234Z,49.35
2023-02-15T00:48:29.023Z,53.83
2023-02-15T00:50:58.624Z,53.08
2023-02-15T00:53:27.195Z,52.38
2023-02-15T00:55:53.986Z,56.63
2023-02-15T00:58:21.050Z,52.63
2023-02-15T01:00:48.374Z,62.50
2023-02-15T01:03:16.959Z,52.85
2023-02-15T01:05:43.766Z,55.25
2023-02-15T01:08:10.578Z,57.28
2023-02-15T01:10:37.378Z,51.47
2023-02-15T01:13:04.171Z,52.42
2023-02-15T01:15:30.770Z,53.75
2023-02-15T01:17:57.493Z,56.35
2023-02-15T01:20:27.524Z,48.58
2023-02-15T01:22:54.978Z,49.58
2023-02-15T01:25:23.868Z,53.83
2023-02-15T01:27:50.872Z,45.35
2023-02-15T01:30:17.960Z,52.45
2023-02-15T01:32:44.824Z,54.40
2023-02-15T01:35:12.208Z,52.00
2023-02-15T01:37:39.574Z,55.42
2023-02-15T01:40:09.027Z,49.67
2023-02-15T01:42:35.693Z,49.42
2023-02-15T01:45:05.449Z,47.08
2023-02-15T01:47:44.670Z,46.47
2023-02-15T01:53:04.807Z,46.08
2023-02-15T01:55:40.741Z,50.35
2023-02-15T01:58:08.565Z,50.13
2023-02-15T02:00:36.123Z,54.72
2023-02-15T02:03:04.135Z,47.67
2023-02-15T02:05:31.392Z,53.35
2023-02-15T02:08:01.013Z,48.67
2023-02-15T02:10:28.432Z,51.53
2023-02-15T02:13:01.019Z,53.20
2023-02-15T02:15:53.667Z,51.38
2023-02-15T02:29:49.264Z,49.17
2023-02-15T02:40:24.703Z,51.35
2023-02-15T02:43:00.978Z,44.65
2023-02-15T02:45:36.920Z,56.15
2023-02-15T02:48:09.315Z,47.22
2023-02-15T02:50:35.854Z,48.75
2023-02-15T02:53:02.710Z,48.78
2023-02-15T02:55:37.370Z,48.60
2023-02-15T03:06:13.287Z,57.25
2023-02-15T03:08:45.577Z,55.70
2023-02-15T03:11:12.640Z,53.20
2023-02-15T03:13:40.516Z,54.30
2023-02-15T03:16:29.992Z,48.95
2023-02-15T03:19:06.914Z,51.17
2023-02-15T03:22:04.850Z,52.55
2023-02-15T03:27:18.681Z,50.65
2023-02-15T03:29:54.681Z,56.40
2023-02-15T03:32:22.866Z,51.65
2023-02-15T03:34:49.574Z,52.25
2023-02-15T03:40:31.011Z,42.97
2023-02-15T03:43:10.050Z,50.55
2023-02-15T03:45:39.339Z,43.10
2023-02-15T03:48:09.336Z,51.90
2023-02-15T03:50:58.991Z,44.30
2023-02-15T03:53:27.123Z,46.08
2023-02-15T03:55:55.928Z,49.78
2023-02-15T03:58:42.529Z,40.33
2023-02-15T04:01:42.918Z,44.70
2023-02-15T04:04:18.952Z,44.40
2023-02-15T04:06:45.642Z,40.30
2023-02-15T04:09:33.714Z,40.47
2023-02-15T04:12:00.732Z,45.10
2023-02-15T04:14:47.218Z,45.03
2023-02-15T04:17:13.781Z,44.65
2023-02-15T04:20:00.286Z,49.80
2023-02-15T04:22:46.777Z,40.15
2023-02-15T04:25:14.573Z,42.85
2023-02-15T04:27:44.583Z,47.15
2023-02-15T04:30:12.942Z,43.47
2023-02-15T04:32:39.682Z,48.30
2023-02-15T04:35:07.201Z,45.63
2023-02-15T04:37:34.522Z,43.58
2023-02-15T04:40:01.103Z,46.38
2023-02-15T04:42:28.452Z,42.38
2023-02-15T04:44:55.212Z,47.70
2023-02-15T04:47:21.754Z,48.22
2023-02-15T04:49:48.394Z,53.80
2023-02-15T04:52:15.326Z,50.35
2023-02-15T04:54:41.938Z,47.95
2023-02-15T04:57:08.454Z,51.28
2023-02-15T04:59:35.016Z,51.45
2023-02-15T05:02:01.660Z,49.30
2023-02-15T05:04:28.378Z,47.50
2023-02-15T05:06:55.009Z,49.47
2023-02-15T05:09:21.551Z,48.70
2023-02-15T05:11:48.271Z,46.38
2023-02-15T05:14:14.906Z,50.28
2023-02-15T05:16:41.599Z,57.28
2023-02-15T05:19:08.356Z,55.58
2023-02-15T05:21:35.081Z,49.53
2023-02-15T05:24:01.633Z,54.53
2023-02-15T05:26:48.078Z,56.17
2023-02-15T05:29:14.650Z,59.33
2023-02-15T05:31:41.924Z,51.95
2023-02-15T05:34:08.590Z,56.95
2023-02-15T05:36:35.151Z,53.13
2023-02-15T05:39:01.696Z,58.50
2023-02-15T05:41:28.366Z,50.40
2023-02-15T05:43:56.936Z,57.67
2023-02-15T05:46:23.538Z,60.63
2023-02-15T05:48:50.154Z,50.08
2023-02-15T05:51:17.964Z,55.13
2023-02-15T05:53:44.819Z,52.00
2023-02-15T05:56:13.039Z,56.00
2023-02-15T05:58:41.478Z,55.42
2023-02-15T06:03:46.605Z,76.55
2023-02-15T06:06:13.307Z,63.22
2023-02-15T06:08:39.855Z,60.97
2023-02-15T06:11:06.614Z,60.50
2023-02-15T06:13:35.975Z,49.92
2023-02-15T06:16:05.085Z,58.25
2023-02-15T06:18:31.946Z,52.78
2023-02-15T06:20:58.493Z,53.85
2023-02-15T06:23:25.114Z,66.80
2023-02-15T06:25:51.827Z,53.72
2023-02-15T06:28:18.399Z,42.55
2023-02-15T06:30:44.964Z,51.88
2023-02-15T06:33:11.552Z,52.80
2023-02-15T06:35:38.154Z,61.28
2023-02-15T06:38:04.751Z,54.85
2023-02-15T06:40:31.289Z,58.00
2023-02-15T06:42:57.813Z,46.90
2023-02-15T06:45:24.405Z,57.10
2023-02-15T06:47:50.965Z,58.40
2023-02-15T06:50:17.531Z,53.55
2023-02-15T06:52:44.093Z,54.28
2023-02-15T06:55:10.668Z,56.78
2023-02-15T06:57:37.510Z,58.78
2023-02-15T07:00:05.961Z,63.15
2023-02-15T07:02:34.243Z,55.15
2023-02-15T07:05:00.883Z,59.50
2023-02-15T07:07:27.538Z,56.50
2023-02-15T07:09:54.156Z,52.97
2023-02-15T07:12:40.621Z,57.38
2023-02-15T07:15:08.628Z,56.40
2023-02-15T07:17:36.352Z,55.30
2023-02-15T07:20:06.062Z,54.80
2023-02-15T07:22:35.031Z,55.60
2023-02-15T07:25:01.872Z,58.42
2023-02-15T07:27:28.474Z,57.60
2023-02-15T07:29:55.015Z,60.58
2023-02-15T07:32:21.715Z,59.00
2023-02-15T07:34:48.292Z,58.38
2023-02-15T07:37:14.987Z,45.47
2023-02-15T07:39:41.538Z,50.42
2023-02-15T07:42:08.061Z,54.53
2023-02-15T07:44:34.606Z,50.20
2023-02-15T07:47:01.184Z,58.90
2023-02-15T07:49:27.906Z,59.83
2023-02-15T07:51:54.510Z,56.67
2023-02-15T07:54:21.299Z,54.10
2023-02-15T07:56:47.948Z,51.33
2023-02-15T07:59:14.547Z,56.03
2023-02-15T08:01:41.340Z,50.30
2023-02-15T08:04:10.544Z,54.22
2023-02-15T08:06:38.018Z,56.22
2023-02-15T08:09:07.071Z,64.85
2023-02-15T08:11:37.876Z,64.43
2023-02-15T08:16:50.455Z,57.55
2023-02-15T08:19:21.262Z,59.63
2023-02-15T08:21:51.331Z,59.92
2023-02-15T08:24:20.956Z,67.80
2023-02-15T08:26:48.744Z,60.22
2023-02-15T08:29:17.191Z,71.80
2023-02-15T08:31:44.160Z,61.70
2023-02-15T08:34:12.689Z,71.18
2023-02-15T08:36:39.292Z,66.57
2023-02-15T08:39:07.157Z,74.82
2023-02-15T08:41:37.462Z,66.88
2023-02-15T08:44:07.682Z,63.25
2023-02-15T08:46:37.351Z,63.35
2023-02-15T08:49:04.787Z,70.90
2023-02-15T08:51:34.744Z,69.22
2023-02-15T08:54:05.190Z,77.03
2023-02-15T08:59:02.026Z,63.67
2023-02-15T09:01:31.163Z,61.47
2023-02-15T09:04:00.404Z,57.40
2023-02-15T09:06:27.768Z,55.80
2023-02-15T09:08:55.727Z,53.97
2023-02-15T09:11:25.098Z,51.35
2023-02-15T09:13:55.319Z,49.75
2023-02-15T09:18:49.550Z,53.00
2023-02-15T09:21:18.778Z,49.00
2023-02-15T09:23:47.387Z,44.40
2023-02-15T09:26:17.590Z,48.47
2023-02-15T09:28:44.738Z,51.72
2023-02-15T09:33:51.691Z,42.90
2023-02-15T09:38:59.762Z,48.72
2023-02-15T09:41:48.184Z,49.13
2023-02-15T09:44:54.528Z,45.90
2023-02-15T10:17:24.900Z,38.13
2023-02-15T10:23:07.390Z,34.65
2023-02-15T10:26:15.080Z,39.17
2023-02-15T10:29:05.495Z,37.67
2023-02-15T10:31:51.943Z,36.80
2023-02-15T10:34:27.925Z,30.27
2023-02-15T10:40:24.276Z,36.08
2023-02-15T10:45:42.913Z,33.17
2023-02-15T10:48:49.342Z,32.35
2023-02-15T10:51:30.672Z,35.72
2023-02-15T10:54:13.938Z,31.38
2023-02-15T11:05:50.209Z,30.33
2023-02-15T11:08:17.479Z,36.95
2023-02-15T11:10:53.184Z,32.40
2023-02-15T11:13:23.539Z,33.90
2023-02-15T11:16:03.868Z,30.23
2023-02-15T11:23:46.079Z,36.65
2023-02-15T11:26:19.820Z,39.25
2023-02-15T11:28:52.568Z,35.95
2023-02-15T11:31:24.089Z,29.73
2023-02-15T11:33:57.200Z,28.45
2023-02-15T11:36:29.156Z,32.65
2023-02-15T11:39:01.572Z,31.20
2023-02-15T11:41:32.822Z,29.90
2023-02-15T11:44:07.472Z,30.05
2023-02-15T11:46:34.198Z,28.55
2023-02-15T11:49:00.791Z,31.92
2023-02-15T11:51:29.815Z,34.47
2023-02-15T11:53:57.240Z,30.88
2023-02-15T11:56:25.689Z,30.60
2023-02-15T12:04:25.373Z,34.50
2023-02-15T12:07:02.195Z,33.72
2023-02-15T12:12:25.981Z,28.17
2023-02-15T12:14:55.127Z,29.45
2023-02-15T12:17:24.914Z,30.63
2023-02-15T12:19:54.335Z,28.98
2023-02-15T12:25:03.316Z,28.77
2023-02-15T12:27:33.197Z,33.28
2023-02-15T12:30:05.182Z,28.33
2023-02-15T12:32:36.762Z,34.38
2023-02-15T12:35:14.956Z,31.55
2023-02-15T12:37:54.983Z,29.73
2023-02-15T12:40:31.288Z,30.73
2023-02-15T12:42:59.304Z,28.67
2023-02-15T12:48:21.602Z,29.48
2023-02-15T12:50:57.498Z,30.08
2023-02-15T12:53:33.409Z,27.20
2023-02-15T12:56:03.771Z,26.98
2023-02-15T12:58:32.433Z,21.98
2023-02-15T13:01:12.172Z,29.67
2023-02-15T13:04:07.242Z,21.33
2023-02-15T13:06:37.621Z,25.25
2023-02-15T13:09:18.839Z,22.75
2023-02-15T13:11:47.023Z,27.23
2023-02-15T13:14:27.575Z,23.10
2023-02-15T13:16:59.349Z,25.67
2023-02-15T13:22:13.890Z,21.10
2023-02-15T13:24:44.324Z,14.93
2023-02-15T13:27:18.688Z,18.27
2023-02-15T13:29:50.572Z,17.98
2023-02-15T13:35:06.080Z,17.83
2023-02-15T13:38:12.813Z,15.77
2023-02-15T13:40:52.115Z,18.00
2023-02-15T13:49:32.330Z,14.35
2023-02-15T14:01:10.173Z,20.90
2023-02-15T14:14:44.128Z,17.75
2023-02-15T14:17:32.776Z,18.85
2023-02-15T14:20:09.371Z,18.65
2023-02-15T14:22:43.969Z,22.77
2023-02-15T14:28:28.998Z,18.73
2023-02-15T14:30:56.325Z,17.92
2023-02-15T14:33:35.260Z,19.40
2023-02-15T14:36:04.918Z,14.20
2023-02-15T14:39:06.623Z,16.90
2023-02-15T14:41:49.544Z,21.95
2023-02-15T14:47:05.958Z,16.73
2023-02-15T14:49:36.740Z,21.40
2023-02-15T15:07:59.249Z,15.40
2023-02-15T15:13:39.864Z,16.88
2023-02-15T15:19:05.695Z,16.73
2023-02-15T15:36:09.098Z,15.15
2023-02-15T15:41:51.370Z,16.33
2023-02-15T15:47:37.077Z,13.98
2023-02-15T15:50:13.688Z,14.85
2023-02-15T15:52:45.614Z,16.40
2023-02-15T15:55:19.207Z,16.98
2023-02-15T15:57:50.631Z,14.93
2023-02-15T16:00:43.317Z,15.43
2023-02-15T16:03:23.042Z,13.98
2023-02-15T16:05:55.198Z,11.90
2023-02-15T16:08:40.070Z,16.98
2023-02-15T16:11:21.942Z,14.15
2023-02-15T16:13:48.538Z,14.52
2023-02-15T16:16:22.616Z,14.77
2023-02-15T16:18:49.875Z,18.00
2023-02-15T16:21:21.903Z,13.88
2023-02-15T16:29:27.167Z,19.52
2023-02-15T16:32:04.516Z,18.45
2023-02-15T16:34:33.577Z,14.85
2023-02-15T16:37:24.349Z,18.25
2023-02-15T16:39:51.388Z,13.07
2023-02-15T16:42:18.753Z,17.90
2023-02-15T16:44:49.065Z,15.93
2023-02-15T16:47:20.828Z,16.35
2023-02-15T16:49:50.843Z,18.60
2023-02-15T16:54:54.578Z,23.27
2023-02-15T16:57:24.880Z,18.73
2023-02-15T16:59:54.411Z,40.05
2023-02-15T17:02:49.251Z,29.83
2023-02-15T17:08:10.914Z,14.43
2023-02-15T17:10:42.766Z,15.25
2023-02-15T17:13:18.055Z,21.05
2023-02-15T17:18:47.030Z,17.63
2023-02-15T17:21:19.913Z,22.73
2023-02-15T17:23:49.315Z,15.40
2023-02-15T17:26:22.268Z,18.00
2023-02-15T17:28:52.013Z,16.58
2023-02-15T17:31:20.510Z,18.15
2023-02-15T17:33:48.008Z,21.23
2023-02-15T17:36:23.646Z,21.52
2023-02-15T17:41:38.093Z,20.40
2023-02-15T17:44:05.365Z,27.05
2023-02-15T17:46:37.919Z,19.52
2023-02-15T17:49:04.959Z,30.65
2023-02-15T17:51:33.254Z,24.65
2023-02-15T17:54:19.730Z,26.75
2023-02-15T17:56:46.474Z,29.63
2023-02-15T17:59:14.121Z,20.67
2023-02-15T18:02:07.239Z,19.33
2023-02-15T18:04:55.902Z,21.40
2023-02-15T18:07:43.148Z,23.52
2023-02-15T18:10:34.713Z,23.85
2023-02-15T18:13:01.379Z,24.98
2023-02-15T18:15:28.452Z,26.23
2023-02-15T18:17:55.402Z,22.77
2023-02-15T18:20:28.267Z,23.58
2023-02-15T18:22:55.118Z,21.00
2023-02-15T18:25:25.530Z,16.92
2023-02-15T18:27:54.922Z,27.35
2023-02-15T18:30:24.041Z,23.90
2023-02-15T18:32:53.989Z,36.70
2023-02-15T18:35:24.317Z,23.30
2023-02-15T18:37:53.527Z,36.88
2023-02-15T18:40:22.761Z,31.45
2023-02-15T18:42:49.612Z,28.13
2023-02-15T18:45:24.275Z,35.05
2023-02-15T18:47:51.359Z,30.50
2023-02-15T18:50:20.148Z,34.00
2023-02-15T18:52:48.840Z,46.45
2023-02-15T18:57:56.278Z,38.65
2023-02-15T19:03:02.229Z,40.80
2023-02-15T19:05:30.276Z,45.42
2023-02-15T19:07:58.721Z,32.78
2023-02-15T19:10:28.575Z,27.25
2023-02-15T19:12:56.036Z,28.88
2023-02-15T19:15:25.303Z,30.58
2023-02-15T19:17:52.392Z,30.98
2023-02-15T19:20:23.252Z,27.55
2023-02-15T19:22:52.066Z,27.02
2023-02-15T19:25:25.349Z,22.95
2023-02-15T19:27:53.062Z,24.92
2023-02-15T19:30:24.551Z,23.02
2023-02-15T19:32:51.152Z,25.08
2023-02-15T19:35:21.912Z,23.35
2023-02-15T19:37:51.883Z,24.15
2023-02-15T19:42:56.813Z,23.17
2023-02-15T19:45:26.143Z,20.83
2023-02-15T19:47:55.114Z,22.10
2023-02-15T19:50:24.890Z,21.60
2023-02-15T19:52:52.146Z,18.98
2023-02-15T19:55:28.839Z,24.52
2023-02-15T19:57:56.907Z,56.88
2023-02-15T20:00:26.389Z,87.22
2023-02-15T20:02:53.872Z,79.40
2023-02-15T20:05:21.449Z,55.63
2023-02-15T20:07:52.341Z,47.42
2023-02-15T20:10:35.675Z,36.38
2023-02-15T20:13:02.855Z,23.58
2023-02-15T20:15:32.610Z,26.23
2023-02-15T20:18:02.847Z,23.38
2023-02-15T20:20:38.852Z,17.55
2023-02-15T20:23:07.059Z,16.55
2023-02-15T20:25:34.226Z,21.35
2023-02-15T20:28:01.917Z,20.38
2023-02-15T20:30:31.626Z,20.77
2023-02-15T20:32:58.284Z,20.15
2023-02-15T20:35:28.728Z,20.52
2023-02-15T20:37:59.616Z,21.33
2023-02-15T20:43:02.779Z,22.10
2023-02-15T20:45:32.206Z,22.58
2023-02-15T20:48:01.520Z,22.98
2023-02-15T20:50:33.390Z,22.70
2023-02-15T20:53:02.794Z,20.52
2023-02-15T20:55:31.518Z,21.70
2023-02-15T20:57:59.496Z,22.77
2023-02-15T21:00:29.316Z,22.73
2023-02-15T21:02:58.563Z,27.83
2023-02-15T21:05:27.847Z,27.05
2023-02-15T21:07:54.826Z,29.80
2023-02-15T21:10:24.167Z,27.95
2023-02-15T21:12:51.635Z,30.95
2023-02-15T21:17:58.766Z,30.15
2023-02-15T21:20:27.017Z,34.60
2023-02-15T21:22:54.435Z,24.15
2023-02-15T21:25:37.283Z,29.80
2023-02-15T21:28:05.549Z,20.40
2023-02-15T21:30:32.166Z,27.77
2023-02-15T21:32:58.737Z,29.95
2023-02-15T21:35:25.529Z,31.00
2023-02-15T21:37:53.244Z,24.00
2023-02-15T21:40:28.701Z,24.10
2023-02-15T21:43:15.401Z,23.17
2023-02-15T21:46:02.210Z,24.00
2023-02-15T21:48:28.820Z,25.75
2023-02-15T21:51:15.441Z,23.30
2023-02-15T21:53:45.918Z,23.63
2023-02-15T21:56:16.693Z,27.05
2023-02-15T21:58:43.600Z,31.85
2023-02-15T22:01:22.213Z,25.25
2023-02-15T22:03:49.699Z,28.58
2023-02-15T22:06:16.385Z,30.25
2023-02-15T22:08:43.562Z,28.42
2023-02-15T22:11:14.194Z,25.85
2023-02-15T22:13:42.167Z,23.52
2023-02-15T22:16:17.161Z,25.23
2023-02-15T22:18:44.322Z,26.75
2023-02-15T22:21:11.654Z,29.42
2023-02-15T22:23:38.924Z,25.90
2023-02-15T22:28:42.503Z,24.85
2023-02-15T22:31:15.055Z,23.75
2023-02-15T22:33:42.026Z,24.00
2023-02-15T22:36:23.162Z,18.95
2023-02-15T22:38:49.798Z,18.95
2023-02-15T22:41:17.222Z,20.35
2023-02-15T22:43:45.558Z,21.38
2023-02-15T22:46:16.297Z,19.77
2023-02-15T22:48:44.444Z,17.58
2023-02-15T22:51:14.269Z,15.15
2023-02-15T22:53:41.299Z,19.75
2023-02-15T22:56:14.260Z,17.88
2023-02-15T22:58:40.866Z,16.35
2023-02-15T23:01:22.192Z,18.15
2023-02-15T23:03:48.785Z,18.00
2023-02-15T23:06:15.763Z,20.10
2023-02-15T23:08:42.334Z,19.35
2023-02-15T23:11:10.439Z,14.75
2023-02-15T23:13:37.731Z,17.10
2023-02-15T23:16:07.150Z,16.13
2023-02-15T23:18:43.978Z,14.98
2023-02-15T23:23:50.200Z,15.45
2023-02-15T23:28:54.580Z,18.85
2023-02-15T23:31:24.926Z,17.45
2023-02-15T23:36:38.088Z,13.85
2023-02-15T23:39:35.072Z,13.60
2023-02-15T23:42:05.144Z,15.45
2023-02-15T23:44:32.245Z,15.50
2023-02-15T23:46:59.087Z,12.10
2023-02-15T23:49:25.648Z,11.02
2023-02-15T23:51:54.601Z,12.07
2023-02-15T23:54:24.091Z,15.18
2023-02-15T23:56:53.555Z,9.65
2023-02-15T23:59:25.483Z,15.43
